sensor_id;sensor_type;location;lat;lon;timestamp;P1;durP1;ratioP1;P2;durP2;ratioP2
15476;SDS011;7840;42.702;23.296;2023-03-01T00:01:15;5.07;;;4.47;;
15476;SDS011;7840;42.702;23.296;2023-03-01T00:03:43;5.87;;;4.63;;
15476;SDS011;7840;42.702;23.296;2023-03-01T00:06:10;5.27;;;4.50;;
15476;SDS011;7840;42.702;23.296;2023-03-01T00:08:37;5.37;;;4.17;;
15476;SDS011;7840;42.702;23.296;2023-03-01T00:11:07;5.17;;;4.67;;
15476;SDS011;7840;42.702;23.296;2023-03-01T00:13:35;5.43;;;4.93;;
15476;SDS011;7840;42.702;23.296;2023-03-01T00:16:03;5.80;;;4.80;;
15476;SDS011;7840;42.702;23.296;2023-03-01T00:18:33;5.67;;;4.70;;
15476;SDS011;7840;42.702;23.296;2023-03-01T00:21:13;5.17;;;4.67;;
15476;SDS011;7840;42.702;23.296;2023-03-01T00:23:41;5.73;;;3.87;;
15476;SDS011;7840;42.702;23.296;2023-03-01T00:26:13;4.13;;;3.73;;
15476;SDS011;7840;42.702;23.296;2023-03-01T00:28:40;4.40;;;4.00;;
15476;SDS011;7840;42.702;23.296;2023-03-01T00:31:10;5.23;;;3.23;;
15476;SDS011;7840;42.702;23.296;2023-03-01T00:33:40;3.60;;;3.27;;
15476;SDS011;7840;42.702;23.296;2023-03-01T00:36:08;3.67;;;3.27;;
15476;SDS011;7840;42.702;23.296;2023-03-01T00:38:40;3.57;;;3.27;;
15476;SDS011;7840;42.702;23.296;2023-03-01T00:41:08;3.37;;;3.07;;
15476;SDS011;7840;42.702;23.296;2023-03-01T00:43:37;3.07;;;2.77;;
15476;SDS011;7840;42.702;23.296;2023-03-01T00:46:05;3.50;;;3.20;;
15476;SDS011;7840;42.702;23.296;2023-03-01T00:48:32;3.70;;;3.40;;
15476;SDS011;7840;42.702;23.296;2023-03-01T00:51:03;3.67;;;3.37;;
15476;SDS011;7840;42.702;23.296;2023-03-01T00:53:31;3.90;;;3.30;;
15476;SDS011;7840;42.702;23.296;2023-03-01T00:55:58;4.90;;;3.50;;
15476;SDS011;7840;42.702;23.296;2023-03-01T00:58:26;3.40;;;3.10;;
15476;SDS011;7840;42.702;23.296;2023-03-01T01:00:54;3.67;;;3.27;;
15476;SDS011;7840;42.702;23.296;2023-03-01T01:03:22;3.27;;;3.07;;
15476;SDS011;7840;42.702;23.296;2023-03-01T01:05:50;3.27;;;2.97;;
15476;SDS011;7840;42.702;23.296;2023-03-01T01:08:18;3.53;;;3.23;;
15476;SDS011;7840;42.702;23.296;2023-03-01T01:10:49;3.63;;;3.33;;
15476;SDS011;7840;42.702;23.296;2023-03-01T01:13:16;3.50;;;3.20;;
15476;SDS011;7840;42.702;23.296;2023-03-01T01:15:46;5.07;;;2.90;;
15476;SDS011;7840;42.702;23.296;2023-03-01T01:18:25;3.67;;;3.37;;
15476;SDS011;7840;42.702;23.296;2023-03-01T01:20:53;2.97;;;2.77;;
15476;SDS011;7840;42.702;23.296;2023-03-01T01:23:20;4.17;;;3.23;;
15476;SDS011;7840;42.702;23.296;2023-03-01T01:25:47;3.40;;;3.10;;
15476;SDS011;7840;42.702;23.296;2023-03-01T01:28:15;3.03;;;2.73;;
15476;SDS011;7840;42.702;23.296;2023-03-01T01:30:49;3.57;;;3.10;;
15476;SDS011;7840;42.702;23.296;2023-03-01T01:33:17;3.60;;;2.77;;
15476;SDS011;7840;42.702;23.296;2023-03-01T01:35:48;4.10;;;3.13;;
15476;SDS011;7840;42.702;23.296;2023-03-01T01:38:15;3.00;;;2.70;;
15476;SDS011;7840;42.702;23.296;2023-03-01T01:40:43;2.80;;;2.43;;
15476;SDS011;7840;42.702;23.296;2023-03-01T01:43:13;2.60;;;2.40;;
15476;SDS011;7840;42.702;23.296;2023-03-01T01:45:43;2.97;;;2.67;;
15476;SDS011;7840;42.702;23.296;2023-03-01T01:48:15;4.23;;;2.33;;
15476;SDS011;7840;42.702;23.296;2023-03-01T01:50:43;2.93;;;2.73;;
15476;SDS011;7840;42.702;23.296;2023-03-01T01:53:15;2.57;;;2.37;;
15476;SDS011;7840;42.702;23.296;2023-03-01T01:55:44;2.37;;;2.17;;
15476;SDS011;7840;42.702;23.296;2023-03-01T01:58:14;2.50;;;2.30;;
15476;SDS011;7840;42.702;23.296;2023-03-01T02:00:43;3.13;;;2.40;;
15476;SDS011;7840;42.702;23.296;2023-03-01T02:03:11;2.77;;;2.50;;
15476;SDS011;7840;42.702;23.296;2023-03-01T02:05:44;2.70;;;2.37;;
15476;SDS011;7840;42.702;23.296;2023-03-01T02:08:15;2.30;;;2.10;;
15476;SDS011;7840;42.702;23.296;2023-03-01T02:10:44;1.97;;;1.87;;
15476;SDS011;7840;42.702;23.296;2023-03-01T02:13:12;3.63;;;1.73;;
15476;SDS011;7840;42.702;23.296;2023-03-01T02:15:42;2.13;;;1.90;;
15476;SDS011;7840;42.702;23.296;2023-03-01T02:18:11;1.90;;;1.80;;
15476;SDS011;7840;42.702;23.296;2023-03-01T02:20:40;1.90;;;1.80;;
15476;SDS011;7840;42.702;23.296;2023-03-01T02:23:12;1.87;;;1.77;;
15476;SDS011;7840;42.702;23.296;2023-03-01T02:25:42;2.17;;;2.00;;
15476;SDS011;7840;42.702;23.296;2023-03-01T02:28:25;2.50;;;1.80;;
15476;SDS011;7840;42.702;23.296;2023-03-01T02:30:53;2.23;;;2.13;;
15476;SDS011;7840;42.702;23.296;2023-03-01T02:33:38;2.53;;;2.20;;
15476;SDS011;7840;42.702;23.296;2023-03-01T02:36:07;1.70;;;1.60;;
15476;SDS011;7840;42.702;23.296;2023-03-01T02:38:36;1.97;;;1.80;;
15476;SDS011;7840;42.702;23.296;2023-03-01T02:41:03;2.00;;;1.90;;
15476;SDS011;7840;42.702;23.296;2023-03-01T02:43:33;2.23;;;2.13;;
15476;SDS011;7840;42.702;23.296;2023-03-01T02:46:02;2.07;;;1.97;;
15476;SDS011;7840;42.702;23.296;2023-03-01T02:51:32;2.43;;;2.23;;
15476;SDS011;7840;42.702;23.296;2023-03-01T02:54:08;2.50;;;2.30;;
15476;SDS011;7840;42.702;23.296;2023-03-01T02:56:39;3.30;;;2.40;;
15476;SDS011;7840;42.702;23.296;2023-03-01T02:59:09;3.03;;;2.73;;
15476;SDS011;7840;42.702;23.296;2023-03-01T03:01:37;2.50;;;2.30;;
15476;SDS011;7840;42.702;23.296;2023-03-01T03:04:05;2.40;;;2.20;;
15476;SDS011;7840;42.702;23.296;2023-03-01T03:06:33;2.83;;;2.63;;
15476;SDS011;7840;42.702;23.296;2023-03-01T03:09:00;2.70;;;2.50;;
15476;SDS011;7840;42.702;23.296;2023-03-01T03:11:27;2.50;;;2.30;;
15476;SDS011;7840;42.702;23.296;2023-03-01T03:13:55;3.33;;;2.70;;
15476;SDS011;7840;42.702;23.296;2023-03-01T03:16:24;2.87;;;2.40;;
15476;SDS011;7840;42.702;23.296;2023-03-01T03:18:51;2.70;;;2.50;;
15476;SDS011;7840;42.702;23.296;2023-03-01T03:24:04;3.33;;;3.03;;
15476;SDS011;7840;42.702;23.296;2023-03-01T03:26:32;3.97;;;3.60;;
15476;SDS011;7840;42.702;23.296;2023-03-01T03:28:59;3.40;;;3.10;;
15476;SDS011;7840;42.702;23.296;2023-03-01T03:31:28;3.83;;;3.00;;
15476;SDS011;7840;42.702;23.296;2023-03-01T03:33:55;3.43;;;3.10;;
15476;SDS011;7840;42.702;23.296;2023-03-01T03:36:24;3.93;;;3.43;;
15476;SDS011;7840;42.702;23.296;2023-03-01T03:38:51;3.47;;;3.17;;
15476;SDS011;7840;42.702;23.296;2023-03-01T03:41:18;4.33;;;3.40;;
15476;SDS011;7840;42.702;23.296;2023-03-01T03:43:46;5.80;;;3.30;;
15476;SDS011;7840;42.702;23.296;2023-03-01T03:46:20;3.33;;;3.07;;
15476;SDS011;7840;42.702;23.296;2023-03-01T03:48:48;4.50;;;3.53;;
15476;SDS011;7840;42.702;23.296;2023-03-01T03:51:16;6.40;;;3.63;;
15476;SDS011;7840;42.702;23.296;2023-03-01T03:53:44;3.77;;;3.23;;
15476;SDS011;7840;42.702;23.296;2023-03-01T03:56:12;3.47;;;3.17;;
15476;SDS011;7840;42.702;23.296;2023-03-01T03:58:39;3.50;;;3.27;;
15476;SDS011;7840;42.702;23.296;2023-03-01T04:01:13;3.90;;;3.60;;
15476;SDS011;7840;42.702;23.296;2023-03-01T04:03:40;5.37;;;4.00;;
15476;SDS011;7840;42.702;23.296;2023-03-01T04:06:20;5.27;;;3.57;;
15476;SDS011;7840;42.702;23.296;2023-03-01T04:08:47;3.87;;;3.47;;
15476;SDS011;7840;42.702;23.296;2023-03-01T04:11:16;3.87;;;3.47;;
15476;SDS011;7840;42.702;23.296;2023-03-01T04:13:53;4.87;;;3.87;;
15476;SDS011;7840;42.702;23.296;2023-03-01T04:16:20;4.40;;;3.50;;
15476;SDS011;7840;42.702;23.296;2023-03-01T04:18:48;4.00;;;3.67;;
15476;SDS011;7840;42.702;23.296;2023-03-01T04:21:17;5.67;;;3.47;;
15476;SDS011;7840;42.702;23.296;2023-03-01T04:23:45;4.23;;;3.20;;
15476;SDS011;7840;42.702;23.296;2023-03-01T04:26:12;3.50;;;3.20;;
15476;SDS011;7840;42.702;23.296;2023-03-01T04:28:40;4.60;;;3.87;;
15476;SDS011;7840;42.702;23.296;2023-03-01T04:31:11;3.80;;;3.50;;
15476;SDS011;7840;42.702;23.296;2023-03-01T04:33:47;3.50;;;3.20;;
15476;SDS011;7840;42.702;23.296;2023-03-01T04:36:18;3.83;;;3.53;;
15476;SDS011;7840;42.702;23.296;2023-03-01T04:38:45;3.47;;;3.20;;
15476;SDS011;7840;42.702;23.296;2023-03-01T04:41:14;3.27;;;2.90;;
15476;SDS011;7840;42.702;23.296;2023-03-01T04:43:41;3.80;;;3.40;;
15476;SDS011;7840;42.702;23.296;2023-03-01T04:46:10;4.00;;;3.60;;
15476;SDS011;7840;42.702;23.296;2023-03-01T04:48:38;4.03;;;3.63;;
15476;SDS011;7840;42.702;23.296;2023-03-01T04:51:16;4.53;;;3.50;;
15476;SDS011;7840;42.702;23.296;2023-03-01T04:53:44;3.90;;;3.50;;
15476;SDS011;7840;42.702;23.296;2023-03-01T04:56:12;5.57;;;2.97;;
15476;SDS011;7840;42.702;23.296;2023-03-01T04:58:40;3.87;;;3.10;;
15476;SDS011;7840;42.702;23.296;2023-03-01T05:01:08;3.60;;;3.30;;
15476;SDS011;7840;42.702;23.296;2023-03-01T05:03:40;3.77;;;3.37;;
15476;SDS011;7840;42.702;23.296;2023-03-01T05:06:07;3.83;;;3.43;;
15476;SDS011;7840;42.702;23.296;2023-03-01T05:08:50;3.63;;;3.33;;
15476;SDS011;7840;42.702;23.296;2023-03-01T05:11:31;4.30;;;3.90;;
15476;SDS011;7840;42.702;23.296;2023-03-01T05:14:01;5.77;;;5.07;;
15476;SDS011;7840;42.702;23.296;2023-03-01T05:16:28;4.43;;;4.03;;
15476;SDS011;7840;42.702;23.296;2023-03-01T05:19:09;3.90;;;3.60;;
15476;SDS011;7840;42.702;23.296;2023-03-01T05:21:52;4.70;;;4.30;;
15476;SDS011;7840;42.702;23.296;2023-03-01T05:27:15;5.27;;;4.40;;
15476;SDS011;7840;42.702;23.296;2023-03-01T05:29:43;5.47;;;4.70;;
15476;SDS011;7840;42.702;23.296;2023-03-01T05:32:10;7.83;;;4.60;;
15476;SDS011;7840;42.702;23.296;2023-03-01T05:34:52;5.40;;;4.90;;
15476;SDS011;7840;42.702;23.296;2023-03-01T05:37:20;8.77;;;5.40;;
15476;SDS011;7840;42.702;23.296;2023-03-01T05:39:47;6.00;;;4.67;;
15476;SDS011;7840;42.702;23.296;2023-03-01T05:42:15;5.70;;;4.70;;
15476;SDS011;7840;42.702;23.296;2023-03-01T05:47:39;6.97;;;5.83;;
15476;SDS011;7840;42.702;23.296;2023-03-01T05:50:12;6.00;;;4.73;;
15476;SDS011;7840;42.702;23.296;2023-03-01T05:52:39;6.63;;;4.87;;
15476;SDS011;7840;42.702;23.296;2023-03-01T05:55:07;5.80;;;4.67;;
15476;SDS011;7840;42.702;23.296;2023-03-01T05:57:35;7.53;;;4.77;;
15476;SDS011;7840;42.702;23.296;2023-03-01T06:00:02;7.27;;;4.57;;
15476;SDS011;7840;42.702;23.296;2023-03-01T06:02:31;5.60;;;4.97;;
15476;SDS011;7840;42.702;23.296;2023-03-01T06:04:58;5.47;;;4.47;;
15476;SDS011;7840;42.702;23.296;2023-03-01T06:07:27;5.53;;;5.03;;
15476;SDS011;7840;42.702;23.296;2023-03-01T06:09:55;7.73;;;4.77;;
15476;SDS011;7840;42.702;23.296;2023-03-01T06:12:22;7.00;;;4.57;;
15476;SDS011;7840;42.702;23.296;2023-03-01T06:14:55;4.97;;;4.43;;
15476;SDS011;7840;42.702;23.296;2023-03-01T06:17:22;6.20;;;3.83;;
15476;SDS011;7840;42.702;23.296;2023-03-01T06:19:50;6.60;;;4.30;;
15476;SDS011;7840;42.702;23.296;2023-03-01T06:22:17;5.60;;;4.77;;
15476;SDS011;7840;42.702;23.296;2023-03-01T06:24:46;6.57;;;4.80;;
15476;SDS011;7840;42.702;23.296;2023-03-01T06:27:13;5.33;;;4.83;;
15476;SDS011;7840;42.702;23.296;2023-03-01T06:29:51;9.23;;;4.43;;
15476;SDS011;7840;42.702;23.296;2023-03-01T06:32:19;4.93;;;3.70;;
15476;SDS011;7840;42.702;23.296;2023-03-01T06:34:46;4.47;;;4.07;;
15476;SDS011;7840;42.702;23.296;2023-03-01T06:37:13;4.83;;;4.30;;
15476;SDS011;7840;42.702;23.296;2023-03-01T06:39:41;4.50;;;3.87;;
15476;SDS011;7840;42.702;23.296;2023-03-01T06:42:09;6.90;;;3.70;;
15476;SDS011;7840;42.702;23.296;2023-03-01T06:44:38;5.47;;;4.10;;
15476;SDS011;7840;42.702;23.296;2023-03-01T06:47:25;6.53;;;4.07;;
15476;SDS011;7840;42.702;23.296;2023-03-01T06:49:52;5.27;;;3.50;;
15476;SDS011;7840;42.702;23.296;2023-03-01T06:52:19;5.53;;;4.40;;
15476;SDS011;7840;42.702;23.296;2023-03-01T06:54:47;4.27;;;3.33;;
15476;SDS011;7840;42.702;23.296;2023-03-01T06:57:16;4.50;;;4.10;;
15476;SDS011;7840;42.702;23.296;2023-03-01T06:59:46;5.33;;;3.40;;
15476;SDS011;7840;42.702;23.296;2023-03-01T07:02:14;5.77;;;3.40;;
15476;SDS011;7840;42.702;23.296;2023-03-01T07:04:42;3.60;;;3.30;;
15476;SDS011;7840;42.702;23.296;2023-03-01T07:07:09;6.80;;;3.53;;
15476;SDS011;7840;42.702;23.296;2023-03-01T07:09:37;5.93;;;3.30;;
15476;SDS011;7840;42.702;23.296;2023-03-01T07:12:04;4.77;;;3.63;;
15476;SDS011;7840;42.702;23.296;2023-03-01T07:17:16;5.70;;;3.77;;
15476;SDS011;7840;42.702;23.296;2023-03-01T07:19:44;6.10;;;3.70;;
15476;SDS011;7840;42.702;23.296;2023-03-01T07:22:12;3.70;;;3.30;;
15476;SDS011;7840;42.702;23.296;2023-03-01T07:24:40;5.33;;;3.90;;
15476;SDS011;7840;42.702;23.296;2023-03-01T07:27:08;9.33;;;4.23;;
15476;SDS011;7840;42.702;23.296;2023-03-01T07:29:49;7.60;;;4.40;;
15476;SDS011;7840;42.702;23.296;2023-03-01T07:32:18;4.90;;;3.53;;
15476;SDS011;7840;42.702;23.296;2023-03-01T07:34:46;7.23;;;4.40;;
15476;SDS011;7840;42.702;23.296;2023-03-01T07:42:37;4.83;;;3.50;;
15476;SDS011;7840;42.702;23.296;2023-03-01T07:45:05;4.37;;;3.97;;
15476;SDS011;7840;42.702;23.296;2023-03-01T07:47:39;6.20;;;3.17;;
15476;SDS011;7840;42.702;23.296;2023-03-01T07:50:07;3.73;;;2.90;;
15476;SDS011;7840;42.702;23.296;2023-03-01T07:52:36;12.20;;;3.37;;
15476;SDS011;7840;42.702;23.296;2023-03-01T07:55:04;3.53;;;3.13;;
15476;SDS011;7840;42.702;23.296;2023-03-01T07:57:31;3.20;;;2.87;;
15476;SDS011;7840;42.702;23.296;2023-03-01T07:59:58;9.10;;;3.63;;
15476;SDS011;7840;42.702;23.296;2023-03-01T08:02:26;5.73;;;3.70;;
15476;SDS011;7840;42.702;23.296;2023-03-01T08:05:03;4.03;;;3.03;;
15476;SDS011;7840;42.702;23.296;2023-03-01T08:07:30;4.53;;;3.63;;
15476;SDS011;7840;42.702;23.296;2023-03-01T08:09:58;5.43;;;3.63;;
15476;SDS011;7840;42.702;23.296;2023-03-01T08:12:25;6.70;;;3.30;;
15476;SDS011;7840;42.702;23.296;2023-03-01T08:14:53;4.77;;;3.93;;
15476;SDS011;7840;42.702;23.296;2023-03-01T08:17:33;8.43;;;3.30;;
15476;SDS011;7840;42.702;23.296;2023-03-01T08:20:00;5.83;;;2.90;;
15476;SDS011;7840;42.702;23.296;2023-03-01T08:22:30;6.77;;;3.00;;
15476;SDS011;7840;42.702;23.296;2023-03-01T08:24:57;6.10;;;3.60;;
15476;SDS011;7840;42.702;23.296;2023-03-01T08:27:26;5.87;;;3.80;;
15476;SDS011;7840;42.702;23.296;2023-03-01T08:29:54;11.70;;;3.73;;
15476;SDS011;7840;42.702;23.296;2023-03-01T08:35:04;7.03;;;3.53;;
15476;SDS011;7840;42.702;23.296;2023-03-01T08:37:33;2.97;;;2.67;;
15476;SDS011;7840;42.702;23.296;2023-03-01T08:40:02;9.37;;;2.93;;
15476;SDS011;7840;42.702;23.296;2023-03-01T08:42:32;7.60;;;3.30;;
15476;SDS011;7840;42.702;23.296;2023-03-01T08:45:00;4.07;;;3.50;;
15476;SDS011;7840;42.702;23.296;2023-03-01T08:47:31;6.10;;;3.83;;
15476;SDS011;7840;42.702;23.296;2023-03-01T08:49:59;4.73;;;2.70;;
15476;SDS011;7840;42.702;23.296;2023-03-01T08:52:26;4.00;;;3.20;;
15476;SDS011;7840;42.702;23.296;2023-03-01T08:55:01;3.10;;;2.80;;
15476;SDS011;7840;42.702;23.296;2023-03-01T08:57:29;4.40;;;3.50;;
15476;SDS011;7840;42.702;23.296;2023-03-01T08:59:56;4.67;;;3.53;;
15476;SDS011;7840;42.702;23.296;2023-03-01T09:02:24;6.10;;;3.60;;
15476;SDS011;7840;42.702;23.296;2023-03-01T09:04:51;7.50;;;3.50;;
15476;SDS011;7840;42.702;23.296;2023-03-01T09:07:19;6.53;;;3.50;;
15476;SDS011;7840;42.702;23.296;2023-03-01T09:09:46;9.40;;;4.53;;
15476;SDS011;7840;42.702;23.296;2023-03-01T09:12:15;6.80;;;3.00;;
15476;SDS011;7840;42.702;23.296;2023-03-01T09:14:42;3.13;;;2.83;;
15476;SDS011;7840;42.702;23.296;2023-03-01T09:17:11;4.67;;;2.83;;
15476;SDS011;7840;42.702;23.296;2023-03-01T09:19:48;2.60;;;2.20;;
15476;SDS011;7840;42.702;23.296;2023-03-01T09:22:16;3.00;;;2.43;;
15476;SDS011;7840;42.702;23.296;2023-03-01T09:24:43;3.53;;;2.67;;
15476;SDS011;7840;42.702;23.296;2023-03-01T09:27:10;11.17;;;3.20;;
15476;SDS011;7840;42.702;23.296;2023-03-01T09:29:41;3.17;;;2.67;;
15476;SDS011;7840;42.702;23.296;2023-03-01T09:32:08;4.47;;;2.20;;
15476;SDS011;7840;42.702;23.296;2023-03-01T09:34:36;2.63;;;2.30;;
15476;SDS011;7840;42.702;23.296;2023-03-01T09:37:17;2.93;;;2.50;;
15476;SDS011;7840;42.702;23.296;2023-03-01T09:39:45;5.77;;;2.53;;
15476;SDS011;7840;42.702;23.296;2023-03-01T09:42:12;2.53;;;2.30;;
15476;SDS011;7840;42.702;23.296;2023-03-01T09:44:45;4.63;;;3.20;;
15476;SDS011;7840;42.702;23.296;2023-03-01T09:47:16;4.87;;;2.43;;
15476;SDS011;7840;42.702;23.296;2023-03-01T09:49:44;5.47;;;2.53;;
15476;SDS011;7840;42.702;23.296;2023-03-01T09:52:19;3.17;;;2.43;;
15476;SDS011;7840;42.702;23.296;2023-03-01T09:54:49;3.00;;;2.70;;
15476;SDS011;7840;42.702;23.296;2023-03-01T09:57:20;2.70;;;2.50;;
15476;SDS011;7840;42.702;23.296;2023-03-01T09:59:53;2.83;;;2.57;;
15476;SDS011;7840;42.702;23.296;2023-03-01T10:02:23;10.17;;;2.77;;
15476;SDS011;7840;42.702;23.296;2023-03-01T10:04:56;1.80;;;1.70;;
15476;SDS011;7840;42.702;23.296;2023-03-01T10:07:30;2.27;;;1.83;;
15476;SDS011;7840;42.702;23.296;2023-03-01T10:09:59;2.37;;;1.97;;
15476;SDS011;7840;42.702;23.296;2023-03-01T10:12:32;2.93;;;1.87;;
15476;SDS011;7840;42.702;23.296;2023-03-01T10:15:02;2.37;;;1.80;;
15476;SDS011;7840;42.702;23.296;2023-03-01T10:17:32;3.03;;;2.10;;
15476;SDS011;7840;42.702;23.296;2023-03-01T10:20:18;3.50;;;1.80;;
15476;SDS011;7840;42.702;23.296;2023-03-01T10:22:46;5.33;;;2.43;;
15476;SDS011;7840;42.702;23.296;2023-03-01T10:25:17;3.80;;;2.33;;
15476;SDS011;7840;42.702;23.296;2023-03-01T10:27:49;2.30;;;2.10;;
15476;SDS011;7840;42.702;23.296;2023-03-01T10:30:21;5.93;;;2.33;;
15476;SDS011;7840;42.702;23.296;2023-03-01T10:32:51;4.17;;;2.47;;
15476;SDS011;7840;42.702;23.296;2023-03-01T10:35:21;3.37;;;2.40;;
15476;SDS011;7840;42.702;23.296;2023-03-01T10:37:58;2.40;;;2.20;;
15476;SDS011;7840;42.702;23.296;2023-03-01T10:40:29;3.23;;;2.53;;
15476;SDS011;7840;42.702;23.296;2023-03-01T10:42:57;2.43;;;2.23;;
15476;SDS011;7840;42.702;23.296;2023-03-01T10:45:56;3.03;;;2.03;;
15476;SDS011;7840;42.702;23.296;2023-03-01T10:48:26;4.47;;;2.43;;
15476;SDS011;7840;42.702;23.296;2023-03-01T10:51:06;7.33;;;2.97;;
15476;SDS011;7840;42.702;23.296;2023-03-01T10:53:47;3.03;;;2.37;;
15476;SDS011;7840;42.702;23.296;2023-03-01T10:56:15;3.87;;;1.90;;
15476;SDS011;7840;42.702;23.296;2023-03-01T10:59:00;5.33;;;1.90;;
15476;SDS011;7840;42.702;23.296;2023-03-01T11:01:44;4.37;;;2.20;;
15476;SDS011;7840;42.702;23.296;2023-03-01T11:04:12;2.40;;;2.03;;
15476;SDS011;7840;42.702;23.296;2023-03-01T11:06:41;2.90;;;1.57;;
15476;SDS011;7840;42.702;23.296;2023-03-01T11:09:15;5.10;;;2.37;;
15476;SDS011;7840;42.702;23.296;2023-03-01T11:11:43;3.07;;;2.10;;
15476;SDS011;7840;42.702;23.296;2023-03-01T11:14:15;2.70;;;1.70;;
15476;SDS011;7840;42.702;23.296;2023-03-01T11:16:45;3.70;;;2.20;;
15476;SDS011;7840;42.702;23.296;2023-03-01T11:19:20;1.57;;;1.43;;
15476;SDS011;7840;42.702;23.296;2023-03-01T11:21:55;6.27;;;2.30;;
15476;SDS011;7840;42.702;23.296;2023-03-01T11:24:26;4.50;;;2.30;;
15476;SDS011;7840;42.702;23.296;2023-03-01T11:26:55;2.23;;;1.70;;
15476;SDS011;7840;42.702;23.296;2023-03-01T11:29:32;2.10;;;1.90;;
15476;SDS011;7840;42.702;23.296;2023-03-01T11:32:06;2.00;;;1.70;;
15476;SDS011;7840;42.702;23.296;2023-03-01T11:34:39;6.27;;;2.40;;
15476;SDS011;7840;42.702;23.296;2023-03-01T11:37:10;4.57;;;2.23;;
15476;SDS011;7840;42.702;23.296;2023-03-01T11:39:41;3.03;;;2.60;;
15476;SDS011;7840;42.702;23.296;2023-03-01T11:42:11;2.47;;;1.73;;
15476;SDS011;7840;42.702;23.296;2023-03-01T11:44:39;4.10;;;1.80;;
15476;SDS011;7840;42.702;23.296;2023-03-01T11:47:14;3.00;;;1.80;;
15476;SDS011;7840;42.702;23.296;2023-03-01T11:49:53;2.37;;;2.17;;
15476;SDS011;7840;42.702;23.296;2023-03-01T11:52:42;2.37;;;1.70;;
15476;SDS011;7840;42.702;23.296;2023-03-01T11:55:19;5.60;;;1.70;;
15476;SDS011;7840;42.702;23.296;2023-03-01T11:58:11;5.50;;;2.03;;
15476;SDS011;7840;42.702;23.296;2023-03-01T12:00:46;2.30;;;2.10;;
15476;SDS011;7840;42.702;23.296;2023-03-01T12:08:42;5.27;;;2.37;;
15476;SDS011;7840;42.702;23.296;2023-03-01T12:11:17;2.40;;;2.20;;
15476;SDS011;7840;42.702;23.296;2023-03-01T12:20:20;5.17;;;2.60;;
15476;SDS011;7840;42.702;23.296;2023-03-01T12:22:53;4.63;;;2.70;;
15476;SDS011;7840;42.702;23.296;2023-03-01T12:25:41;4.37;;;2.90;;
15476;SDS011;7840;42.702;23.296;2023-03-01T12:28:40;3.43;;;2.80;;
15476;SDS011;7840;42.702;23.296;2023-03-01T12:34:11;3.60;;;2.93;;
15476;SDS011;7840;42.702;23.296;2023-03-01T12:36:52;9.33;;;3.30;;
15476;SDS011;7840;42.702;23.296;2023-03-01T12:39:25;4.27;;;3.60;;
15476;SDS011;7840;42.702;23.296;2023-03-01T12:42:01;4.27;;;3.37;;
15476;SDS011;7840;42.702;23.296;2023-03-01T12:44:32;3.93;;;3.17;;
15476;SDS011;7840;42.702;23.296;2023-03-01T12:47:06;5.87;;;2.93;;
15476;SDS011;7840;42.702;23.296;2023-03-01T12:49:49;5.03;;;2.93;;
15476;SDS011;7840;42.702;23.296;2023-03-01T12:52:19;5.43;;;3.00;;
15476;SDS011;7840;42.702;23.296;2023-03-01T12:55:02;6.50;;;3.17;;
15476;SDS011;7840;42.702;23.296;2023-03-01T12:57:52;3.70;;;2.97;;
15476;SDS011;7840;42.702;23.296;2023-03-01T13:00:38;8.07;;;3.33;;
15476;SDS011;7840;42.702;23.296;2023-03-01T13:03:19;5.50;;;3.07;;
15476;SDS011;7840;42.702;23.296;2023-03-01T13:05:52;4.23;;;3.43;;
15476;SDS011;7840;42.702;23.296;2023-03-01T13:08:26;6.37;;;3.17;;
15476;SDS011;7840;42.702;23.296;2023-03-01T13:10:55;4.00;;;3.60;;
15476;SDS011;7840;42.702;23.296;2023-03-01T13:13:37;4.83;;;3.40;;
15476;SDS011;7840;42.702;23.296;2023-03-01T13:19:09;3.93;;;3.03;;
15476;SDS011;7840;42.702;23.296;2023-03-01T13:21:37;6.73;;;3.33;;
15476;SDS011;7840;42.702;23.296;2023-03-01T13:24:22;4.20;;;3.07;;
15476;SDS011;7840;42.702;23.296;2023-03-01T13:29:43;4.47;;;3.13;;
15476;SDS011;7840;42.702;23.296;2023-03-01T13:32:25;5.30;;;3.30;;
15476;SDS011;7840;42.702;23.296;2023-03-01T13:35:00;4.70;;;2.70;;
15476;SDS011;7840;42.702;23.296;2023-03-01T13:42:56;3.30;;;3.00;;
15476;SDS011;7840;42.702;23.296;2023-03-01T13:45:33;3.47;;;3.17;;
15476;SDS011;7840;42.702;23.296;2023-03-01T13:48:02;5.17;;;3.77;;
15476;SDS011;7840;42.702;23.296;2023-03-01T13:50:32;4.77;;;3.33;;
15476;SDS011;7840;42.702;23.296;2023-03-01T13:53:01;6.37;;;3.57;;
15476;SDS011;7840;42.702;23.296;2023-03-01T13:55:32;5.53;;;3.03;;
15476;SDS011;7840;42.702;23.296;2023-03-01T13:58:04;5.37;;;2.87;;
15476;SDS011;7840;42.702;23.296;2023-03-01T14:00:41;3.63;;;3.00;;
15476;SDS011;7840;42.702;23.296;2023-03-01T14:03:10;5.73;;;3.23;;
15476;SDS011;7840;42.702;23.296;2023-03-01T14:05:38;5.50;;;3.10;;
15476;SDS011;7840;42.702;23.296;2023-03-01T14:08:17;4.07;;;3.50;;
15476;SDS011;7840;42.702;23.296;2023-03-01T14:10:48;5.77;;;3.37;;
15476;SDS011;7840;42.702;23.296;2023-03-01T14:13:22;4.77;;;2.90;;
15476;SDS011;7840;42.702;23.296;2023-03-01T14:15:59;8.80;;;3.73;;
15476;SDS011;7840;42.702;23.296;2023-03-01T14:18:30;6.93;;;3.87;;
15476;SDS011;7840;42.702;23.296;2023-03-01T14:21:06;7.13;;;4.00;;
15476;SDS011;7840;42.702;23.296;2023-03-01T14:23:34;8.03;;;4.93;;
15476;SDS011;7840;42.702;23.296;2023-03-01T14:26:01;11.73;;;5.73;;
15476;SDS011;7840;42.702;23.296;2023-03-01T14:28:30;4.17;;;3.53;;
15476;SDS011;7840;42.702;23.296;2023-03-01T14:31:01;6.50;;;3.10;;
15476;SDS011;7840;42.702;23.296;2023-03-01T14:33:42;5.93;;;3.80;;
15476;SDS011;7840;42.702;23.296;2023-03-01T14:36:10;3.97;;;3.40;;
15476;SDS011;7840;42.702;23.296;2023-03-01T14:38:38;5.80;;;4.23;;
15476;SDS011;7840;42.702;23.296;2023-03-01T14:41:07;8.27;;;4.00;;
15476;SDS011;7840;42.702;23.296;2023-03-01T14:43:35;8.70;;;3.93;;
15476;SDS011;7840;42.702;23.296;2023-03-01T14:48:50;4.60;;;3.50;;
15476;SDS011;7840;42.702;23.296;2023-03-01T14:51:18;4.17;;;3.40;;
15476;SDS011;7840;42.702;23.296;2023-03-01T14:53:45;5.87;;;3.27;;
15476;SDS011;7840;42.702;23.296;2023-03-01T14:56:14;4.70;;;3.20;;
15476;SDS011;7840;42.702;23.296;2023-03-01T14:58:42;6.40;;;4.10;;
15476;SDS011;7840;42.702;23.296;2023-03-01T15:01:13;5.17;;;3.20;;
15476;SDS011;7840;42.702;23.296;2023-03-01T15:03:42;4.00;;;3.17;;
15476;SDS011;7840;42.702;23.296;2023-03-01T15:06:14;3.90;;;2.93;;
15476;SDS011;7840;42.702;23.296;2023-03-01T15:08:42;4.47;;;3.10;;
15476;SDS011;7840;42.702;23.296;2023-03-01T15:11:17;6.83;;;3.27;;
15476;SDS011;7840;42.702;23.296;2023-03-01T15:13:47;5.33;;;3.20;;
15476;SDS011;7840;42.702;23.296;2023-03-01T15:16:15;6.97;;;3.60;;
15476;SDS011;7840;42.702;23.296;2023-03-01T15:18:43;6.23;;;2.93;;
15476;SDS011;7840;42.702;23.296;2023-03-01T15:21:18;7.93;;;3.57;;
15476;SDS011;7840;42.702;23.296;2023-03-01T15:23:48;6.13;;;3.73;;
15476;SDS011;7840;42.702;23.296;2023-03-01T15:26:26;4.20;;;3.40;;
15476;SDS011;7840;42.702;23.296;2023-03-01T15:28:55;6.47;;;3.70;;
15476;SDS011;7840;42.702;23.296;2023-03-01T15:31:25;5.77;;;3.63;;
15476;SDS011;7840;42.702;23.296;2023-03-01T15:33:53;5.63;;;3.83;;
15476;SDS011;7840;42.702;23.296;2023-03-01T16:10:52;7.60;;;4.90;;
15476;SDS011;7840;42.702;23.296;2023-03-01T16:13:20;8.67;;;4.37;;
15476;SDS011;7840;42.702;23.296;2023-03-01T16:16:01;7.63;;;4.70;;
15476;SDS011;7840;42.702;23.296;2023-03-01T16:18:29;7.47;;;5.33;;
15476;SDS011;7840;42.702;23.296;2023-03-01T16:20:56;8.50;;;3.93;;
15476;SDS011;7840;42.702;23.296;2023-03-01T16:23:24;10.10;;;4.70;;
15476;SDS011;7840;42.702;23.296;2023-03-01T16:25:59;5.90;;;4.10;;
15476;SDS011;7840;42.702;23.296;2023-03-01T16:28:27;7.27;;;4.17;;
15476;SDS011;7840;42.702;23.296;2023-03-01T16:30:54;5.60;;;4.47;;
15476;SDS011;7840;42.702;23.296;2023-03-01T16:33:22;8.83;;;4.87;;
15476;SDS011;7840;42.702;23.296;2023-03-01T16:35:50;7.07;;;4.43;;